Time;durP1;ratioP1;P1;durP2;ratioP2;P2;SDS_P1;SDS_P2;PMS_P1;PMS_P2;Temp;Humidity;BMP_temperature;BMP_pressure;BME280_temperature;BME280_humidity;BME280_pressure;Samples;Min_cycle;Max_cycle;Signal;HPM_P1;HPM_P2
2021/12/01 00:01:03;;;;;;;21.70;11.90;;;8.60;99.90;;;;;;5068840;28;20086;-82
2021/12/01 00:03:29;;;;;;;20.55;12.15;;;8.60;99.90;;;;;;5078704;28;20396;-85
2021/12/01 00:05:54;;;;;;;28.58;14.00;;;8.60;99.90;;;;;;5070930;28;20048;-86
2021/12/01 00:08:20;;;;;;;20.23;12.77;;;8.60;99.90;;;;;;5069270;28;20041;-84
2021/12/01 00:10:46;;;;;;;30.25;14.98;;;8.70;99.90;;;;;;5052640;28;20048;-85
2021/12/01 00:13:17;;;;;;;24.45;14.40;;;8.70;99.90;;;;;;5061789;28;20036;-85
2021/12/01 00:15:43;;;;;;;26.75;14.75;;;8.70;99.90;;;;;;5068503;28;20055;-85
2021/12/01 00:18:09;;;;;;;23.63;14.00;;;8.80;99.90;;;;;;5068242;28;20080;-76
2021/12/01 00:20:36;;;;;;;21.23;13.60;;;8.80;99.90;;;;;;5069388;28;20109;-82
2021/12/01 00:23:02;;;;;;;27.75;17.48;;;8.90;99.90;;;;;;5069353;28;20037;-76
2021/12/01 00:25:29;;;;;;;24.95;16.77;;;8.90;99.90;;;;;;5070337;28;20052;-83
2021/12/01 00:27:55;;;;;;;26.73;16.42;;;8.90;99.90;;;;;;5069636;28;20115;-81
2021/12/01 00:30:22;;;;;;;28.38;16.25;;;8.90;99.90;;;;;;5067943;28;20083;-83
2021/12/01 00:32:48;;;;;;;29.02;18.75;;;8.90;99.90;;;;;;5068747;28;20420;-79
2021/12/01 00:35:14;;;;;;;33.28;18.00;;;8.90;99.90;;;;;;5070064;28;20037;-79
2021/12/01 00:37:41;;;;;;;28.50;17.45;;;9.00;99.90;;;;;;5071134;28;20110;-85
2021/12/01 00:40:09;;;;;;;23.77;15.85;;;9.00;99.90;;;;;;5063327;28;20048;-85
2021/12/01 00:42:35;;;;;;;33.67;18.15;;;9.00;99.90;;;;;;5069582;28;20493;-83
2021/12/01 00:45:07;;;;;;;30.30;16.65;;;9.00;99.90;;;;;;5070190;28;20086;-85
2021/12/01 00:50:33;;;;;;;25.63;15.20;;;9.10;99.90;;;;;;5052061;28;20500;-81
2021/12/01 00:53:04;;;;;;;29.25;14.18;;;9.00;99.90;;;;;;5069469;28;20056;-86
2021/12/01 00:55:30;;;;;;;35.38;14.60;;;9.00;99.90;;;;;;5070180;28;20048;-85
2021/12/01 00:57:57;;;;;;;23.27;12.68;;;9.10;99.90;;;;;;5068942;28;20041;-83
2021/12/01 01:00:27;;;;;;;27.23;13.40;;;9.10;99.90;;;;;;5072856;28;20393;-85
2021/12/01 01:02:53;;;;;;;27.08;13.60;;;9.10;99.90;;;;;;5073127;28;20091;-80
2021/12/01 01:05:19;;;;;;;29.70;14.55;;;9.10;99.90;;;;;;5072828;28;20048;-84
2021/12/01 01:07:46;;;;;;;25.00;13.35;;;9.10;99.90;;;;;;5076442;28;20041;-84
2021/12/01 01:10:29;;;;;;;27.40;13.55;;;9.10;99.90;;;;;;5073430;28;20072;-83
2021/12/01 01:18:36;;;;;;;22.27;12.52;;;9.40;99.90;;;;;;5076595;28;20485;-85
2021/12/01 01:21:03;;;;;;;27.25;13.10;;;9.10;99.90;;;;;;5074116;28;20032;-77
2021/12/01 01:23:29;;;;;;;22.50;12.40;;;9.10;99.90;;;;;;5074892;28;20059;-85
2021/12/01 01:25:57;;;;;;;21.10;11.10;;;9.10;99.90;;;;;;5075228;28;20079;-79
2021/12/01 01:28:24;;;;;;;28.35;12.05;;;9.10;99.90;;;;;;5072488;28;20068;-83
2021/12/01 01:30:49;;;;;;;25.45;11.80;;;10.00;99.90;;;;;;5073685;28;20045;-77
2021/12/01 01:33:15;;;;;;;17.63;8.48;;;9.10;99.90;;;;;;5064777;28;20037;-86
2021/12/01 01:35:41;;;;;;;17.58;8.80;;;9.20;99.90;;;;;;5067009;28;20058;-84
2021/12/01 01:38:06;;;;;;;15.65;8.55;;;9.20;99.90;;;;;;5057703;28;20396;-84
2021/12/01 01:40:32;;;;;;;17.50;8.30;;;9.20;99.90;;;;;;5066536;28;20121;-83
2021/12/01 01:42:58;;;;;;;18.15;7.60;;;9.20;99.90;;;;;;5073296;28;20040;-86
2021/12/01 01:45:24;;;;;;;16.20;6.55;;;9.20;99.90;;;;;;5070282;28;20066;-80
2021/12/01 01:48:03;;;;;;;15.30;6.57;;;9.30;99.90;;;;;;5072586;28;20072;-84
2021/12/01 01:50:37;;;;;;;12.02;4.22;;;9.30;99.90;;;;;;5071604;28;20095;-84
2021/12/01 01:53:08;;;;;;;16.92;4.25;;;9.30;99.90;;;;;;5071999;28;20052;-86
2021/12/01 01:55:35;;;;;;;17.35;5.88;;;9.40;99.90;;;;;;5071834;28;20123;-85
2021/12/01 01:58:02;;;;;;;12.15;3.97;;;9.30;99.90;;;;;;5075165;28;20464;-86
2021/12/01 02:00:28;;;;;;;11.23;4.95;;;9.40;99.90;;;;;;5072143;28;20048;-86
2021/12/01 02:02:56;;;;;;;10.80;3.83;;;9.40;99.90;;;;;;5072808;28;20348;-85
2021/12/01 02:05:22;;;;;;;15.85;3.25;;;9.40;99.90;;;;;;5065091;28;20412;-86
2021/12/01 02:07:48;;;;;;;13.82;3.55;;;9.40;99.90;;;;;;5069213;28;20226;-85
2021/12/01 02:10:15;;;;;;;11.88;3.50;;;9.50;99.90;;;;;;5068751;28;20577;-86
2021/12/01 02:12:41;;;;;;;10.80;2.15;;;9.50;99.90;;;;;;5071439;28;20400;-87
2021/12/01 02:15:08;;;;;;;9.15;2.35;;;9.50;99.90;;;;;;5069025;28;20029;-86
2021/12/01 02:17:34;;;;;;;4.82;2.25;;;9.40;99.90;;;;;;5066812;28;20072;-87
2021/12/01 02:19:59;;;;;;;7.80;1.67;;;9.40;99.90;;;;;;5070754;28;20041;-88
2021/12/01 02:22:25;;;;;;;7.32;1.60;;;9.40;99.90;;;;;;5069680;28;20492;-86
2021/12/01 02:24:51;;;;;;;7.70;1.65;;;9.40;99.90;;;;;;5054767;28;20098;-87
2021/12/01 02:27:16;;;;;;;4.10;0.93;;;9.40;99.90;;;;;;5069396;28;20107;-85
2021/12/01 02:29:42;;;;;;;6.85;1.00;;;9.40;99.90;;;;;;5071696;28;20079;-87
2021/12/01 02:32:08;;;;;;;5.93;0.85;;;9.30;99.90;;;;;;5071391;28;20040;-86
2021/12/01 02:34:44;;;;;;;4.90;0.80;;;9.40;99.90;;;;;;5078156;28;20055;-81
2021/12/01 02:37:10;;;;;;;3.72;0.60;;;9.40;99.90;;;;;;5070435;28;20074;-86
2021/12/01 02:39:36;;;;;;;6.07;1.08;;;9.40;99.90;;;;;;5075737;28;20072;-85
2021/12/01 02:42:05;;;;;;;6.10;1.92;;;9.40;99.90;;;;;;5069330;28;20048;-76
2021/12/01 02:44:31;;;;;;;5.82;1.27;;;9.50;99.90;;;;;;5071744;28;20052;-83
2021/12/01 02:46:58;;;;;;;4.18;0.65;;;9.50;99.90;;;;;;5071354;28;20044;-85
2021/12/01 02:49:24;;;;;;;5.50;0.47;;;9.50;99.90;;;;;;5073380;28;20097;-81
2021/12/01 02:51:53;;;;;;;6.60;0.90;;;9.60;99.90;;;;;;5071725;28;20076;-84
2021/12/01 02:54:20;;;;;;;5.18;1.02;;;9.60;99.90;;;;;;5067631;28;20084;-83
2021/12/01 02:56:48;;;;;;;2.33;0.75;;;9.60;99.90;;;;;;5074948;28;20055;-84
2021/12/01 02:59:15;;;;;;;5.55;0.70;;;9.60;99.90;;;;;;5075901;28;20052;-82
2021/12/01 03:01:41;;;;;;;7.53;0.88;;;8.90;99.90;;;;;;5070307;28;20045;-82
2021/12/01 03:04:07;;;;;;;8.45;1.23;;;9.70;99.90;;;;;;5070133;28;20526;-84
2021/12/01 03:06:36;;;;;;;9.45;1.27;;;9.60;99.90;;;;;;5070858;28;20500;-81
2021/12/01 03:09:04;;;;;;;5.05;0.98;;;9.70;99.90;;;;;;5070734;28;20094;-76
2021/12/01 03:11:30;;;;;;;6.47;1.00;;;9.70;99.90;;;;;;5069620;28;20067;-84
2021/12/01 03:13:55;;;;;;;5.53;0.70;;;9.60;99.90;;;;;;5071069;28;20821;-76
2021/12/01 03:16:22;;;;;;;5.55;0.90;;;9.70;99.90;;;;;;5070379;28;20036;-83
2021/12/01 03:18:48;;;;;;;2.35;0.80;;;9.70;99.90;;;;;;5076629;28;20147;-82
2021/12/01 03:21:14;;;;;;;3.83;0.43;;;9.70;99.90;;;;;;5069619;28;20111;-84
2021/12/01 03:23:40;;;;;;;5.03;1.27;;;9.80;99.90;;;;;;5072429;28;20091;-84
2021/12/01 03:26:06;;;;;;;5.55;1.05;;;9.80;99.90;;;;;;5069001;28;20040;-81
2021/12/01 03:28:32;;;;;;;7.13;1.42;;;9.70;99.90;;;;;;5071699;28;20076;-86
2021/12/01 03:30:58;;;;;;;16.55;1.90;;;9.70;99.90;;;;;;5069043;28;20201;-86
2021/12/01 03:33:24;;;;;;;11.77;1.58;;;9.70;99.90;;;;;;5068930;28;20037;-82
2021/12/01 03:35:51;;;;;;;10.13;2.28;;;9.70;99.90;;;;;;5070767;28;20098;-84
2021/12/01 03:38:19;;;;;;;12.57;2.33;;;10.80;99.90;;;;;;5068841;28;20046;-84
2021/12/01 03:40:45;;;;;;;11.48;2.22;;;9.70;99.90;;;;;;5071113;28;20132;-77
2021/12/01 03:43:11;;;;;;;8.98;2.83;;;10.40;99.90;;;;;;5070372;28;20032;-83
2021/12/01 03:45:37;;;;;;;12.05;1.58;;;9.60;99.90;;;;;;5069841;28;20411;-86
2021/12/01 03:48:03;;;;;;;6.80;1.30;;;9.60;99.90;;;;;;5070553;28;20042;-80
2021/12/01 03:50:29;;;;;;;14.80;2.33;;;9.60;99.90;;;;;;5070741;28;20043;-86
2021/12/01 03:52:55;;;;;;;14.85;1.63;;;9.50;99.90;;;;;;5067662;28;20059;-82
2021/12/01 03:55:20;;;;;;;12.85;2.22;;;9.60;99.90;;;;;;5072911;28;20045;-86
2021/12/01 03:57:46;;;;;;;9.93;2.30;;;9.50;99.90;;;;;;5073296;28;20051;-84
2021/12/01 04:00:14;;;;;;;23.23;3.25;;;9.50;99.90;;;;;;5076470;28;20037;-78
2021/12/01 04:02:41;;;;;;;9.95;2.15;;;9.50;99.90;;;;;;5074693;28;20083;-76
2021/12/01 04:05:07;;;;;;;10.57;1.90;;;9.60;99.90;;;;;;5069726;28;20115;-86
2021/12/01 04:07:33;;;;;;;10.82;2.38;;;9.50;99.90;;;;;;5066203;28;20067;-77
2021/12/01 04:09:59;;;;;;;13.95;2.47;;;9.50;99.90;;;;;;5073804;28;20606;-77
2021/12/01 04:12:25;;;;;;;14.15;2.25;;;9.50;99.90;;;;;;5070235;28;20056;-85
2021/12/01 04:14:51;;;;;;;11.52;1.25;;;10.60;99.90;;;;;;5070465;28;20040;-83
2021/12/01 04:17:17;;;;;;;14.23;2.13;;;9.50;99.90;;;;;;5069278;28;20116;-82
2021/12/01 04:19:43;;;;;;;13.88;1.73;;;10.80;99.90;;;;;;5076614;28;20032;-84
2021/12/01 04:22:08;;;;;;;17.08;1.77;;;9.40;99.90;;;;;;5067610;28;20048;-79
2021/12/01 04:24:34;;;;;;;11.32;1.73;;;9.40;99.90;;;;;;5070951;28;20040;-78
2021/12/01 04:27:00;;;;;;;6.38;1.20;;;9.40;99.90;;;;;;5073701;28;20032;-84
2021/12/01 04:29:26;;;;;;;5.45;1.15;;;9.50;99.90;;;;;;5072873;28;20170;-87
2021/12/01 04:31:52;;;;;;;7.95;0.68;;;9.90;99.90;;;;;;5069938;28;20044;-78
2021/12/01 04:34:19;;;;;;;5.95;1.13;;;9.40;99.90;;;;;;5077261;28;20043;-89
2021/12/01 04:36:47;;;;;;;8.32;0.88;;;9.50;99.90;;;;;;5067373;28;20076;-85
2021/12/01 04:39:14;;;;;;;5.82;1.17;;;9.50;99.90;;;;;;5075642;28;20044;-85
2021/12/01 04:41:52;;;;;;;7.07;1.02;;;9.40;99.90;;;;;;5074612;28;20043;-81
2021/12/01 04:44:19;;;;;;;7.68;1.20;;;9.40;99.90;;;;;;5073095;28;20044;-86
2021/12/01 04:46:47;;;;;;;2.90;0.93;;;9.40;99.90;;;;;;5073577;28;20044;-85
2021/12/01 04:49:18;;;;;;;4.97;1.02;;;9.60;99.90;;;;;;5072579;28;20829;-85
2021/12/01 04:51:49;;;;;;;4.78;1.00;;;9.40;99.90;;;;;;5072690;28;20059;-84
2021/12/01 04:54:16;;;;;;;5.53;1.27;;;10.50;99.90;;;;;;5067569;28;20660;-85
2021/12/01 04:56:43;;;;;;;8.23;2.03;;;9.30;99.90;;;;;;5078921;28;20032;-77
2021/12/01 04:59:09;;;;;;;3.40;1.15;;;9.30;99.90;;;;;;5080222;28;20047;-79
2021/12/01 05:01:36;;;;;;;3.10;1.65;;;9.30;99.90;;;;;;5075613;28;20079;-82
2021/12/01 05:04:02;;;;;;;2.88;1.17;;;9.30;99.90;;;;;;5071468;28;20434;-80
2021/12/01 05:06:28;;;;;;;4.72;1.17;;;9.30;99.90;;;;;;5072067;28;20040;-84
2021/12/01 05:08:53;;;;;;;1.02;0.80;;;9.30;99.90;;;;;;5078392;28;20404;-83
2021/12/01 05:11:19;;;;;;;1.05;0.55;;;9.40;99.90;;;;;;5070742;28;20032;-81
2021/12/01 05:13:45;;;;;;;0.68;0.52;;;9.30;99.90;;;;;;5074677;28;20041;-82
2021/12/01 05:16:10;;;;;;;0.50;0.50;;;9.40;99.90;;;;;;5073986;28;20062;-88
2021/12/01 05:18:36;;;;;;;0.32;0.32;;;9.30;99.90;;;;;;5074131;28;20097;-86
2021/12/01 05:21:03;;;;;;;2.15;0.45;;;9.40;99.90;;;;;;5075826;28;20124;-75
2021/12/01 05:23:29;;;;;;;1.38;0.30;;;9.30;99.90;;;;;;5072707;28;20052;-82
2021/12/01 05:25:54;;;;;;;0.55;0.20;;;9.30;99.90;;;;;;5073187;28;20120;-75
2021/12/01 05:28:20;;;;;;;1.60;0.70;;;9.30;99.90;;;;;;5071112;28;20395;-86
2021/12/01 05:30:45;;;;;;;0.13;0.10;;;9.30;99.90;;;;;;5072711;28;20040;-86
2021/12/01 05:33:14;;;;;;;0.40;0.13;;;9.20;99.90;;;;;;5070464;28;20044;-86
2021/12/01 05:35:41;;;;;;;0.82;0.40;;;9.20;99.90;;;;;;5071555;28;20048;-87
2021/12/01 05:38:06;;;;;;;0.50;0.30;;;9.20;99.90;;;;;;5071675;28;20454;-80
2021/12/01 05:40:32;;;;;;;0.50;0.30;;;9.20;99.90;;;;;;5052510;28;20033;-84
2021/12/01 05:42:58;;;;;;;0.60;0.50;;;9.10;99.90;;;;;;5072428;28;20037;-87
2021/12/01 05:45:24;;;;;;;0.88;0.40;;;9.10;99.90;;;;;;5054016;28;20397;-85
2021/12/01 05:47:50;;;;;;;0.70;0.50;;;9.10;99.90;;;;;;5072664;28;20068;-77
2021/12/01 05:50:16;;;;;;;0.82;0.60;;;9.10;99.90;;;;;;5068299;28;20551;-86
2021/12/01 05:52:43;;;;;;;1.70;1.10;;;9.10;99.90;;;;;;5065090;28;20519;-84
2021/12/01 05:55:09;;;;;;;0.90;0.90;;;9.10;99.90;;;;;;5065523;28;20049;-82
2021/12/01 05:57:36;;;;;;;1.73;1.10;;;9.10;99.90;;;;;;5056052;28;20118;-87
2021/12/01 06:00:07;;;;;;;2.67;0.70;;;9.10;99.90;;;;;;5058784;28;20048;-78
2021/12/01 06:02:36;;;;;;;1.30;1.02;;;9.10;99.90;;;;;;5063037;28;20036;-77
2021/12/01 06:05:03;;;;;;;1.92;1.50;;;9.10;99.90;;;;;;5054492;28;20426;-78
2021/12/01 06:07:29;;;;;;;1.70;1.42;;;9.10;99.90;;;;;;5068346;28;20045;-85
2021/12/01 06:09:54;;;;;;;1.40;1.30;;;9.50;99.90;;;;;;5052651;28;20110;-85
2021/12/01 06:12:21;;;;;;;1.48;1.35;;;9.00;99.90;;;;;;5047833;28;20051;-84
2021/12/01 06:14:47;;;;;;;0.82;0.82;;;9.00;99.90;;;;;;5069422;28;20051;-84
2021/12/01 06:17:14;;;;;;;1.25;1.13;;;9.00;99.90;;;;;;5065959;28;20032;-78
2021/12/01 06:19:40;;;;;;;1.20;1.10;;;9.00;99.90;;;;;;5068562;28;20045;-80
2021/12/01 06:22:06;;;;;;;0.93;0.93;;;9.00;99.90;;;;;;5065306;28;20094;-76
2021/12/01 06:24:33;;;;;;;1.15;1.05;;;9.00;99.90;;;;;;5062621;28;20381;-86
2021/12/01 06:26:59;;;;;;;1.48;0.80;;;8.60;99.90;;;;;;5065997;28;20078;-84
2021/12/01 06:29:25;;;;;;;0.75;0.73;;;9.00;99.90;;;;;;5065603;28;20048;-87
2021/12/01 06:31:50;;;;;;;0.55;0.55;;;8.90;99.90;;;;;;5065495;28;20045;-86
2021/12/01 06:34:16;;;;;;;0.52;0.50;;;8.90;99.90;;;;;;5061289;28;20040;-75
2021/12/01 06:36:42;;;;;;;0.50;0.50;;;8.90;99.90;;;;;;5063937;28;20048;-86
2021/12/01 06:39:08;;;;;;;0.47;0.47;;;8.90;99.90;;;;;;5067427;28;20044;-87
2021/12/01 06:41:34;;;;;;;0.50;0.50;;;8.90;99.90;;;;;;5068856;28;20438;-82
2021/12/01 06:44:00;;;;;;;0.35;0.30;;;8.90;99.90;;;;;;5068695;28;20052;-79
2021/12/01 06:46:28;;;;;;;0.63;0.25;;;8.90;99.90;;;;;;5070932;28;20033;-76
2021/12/01 06:48:54;;;;;;;1.60;0.77;;;8.80;99.90;;;;;;5066561;28;20044;-79
2021/12/01 06:51:20;;;;;;;1.17;0.65;;;8.80;99.90;;;;;;5067148;28;20041;-77
2021/12/01 06:53:45;;;;;;;0.90;0.90;;;8.80;99.90;;;;;;5069749;28;20052;-85
2021/12/01 06:56:11;;;;;;;0.70;0.70;;;8.80;99.90;;;;;;5067719;28;20103;-82
2021/12/01 06:58:38;;;;;;;2.35;1.02;;;8.90;99.90;;;;;;5068519;28;20036;-83
2021/12/01 07:01:06;;;;;;;0.57;0.55;;;8.80;99.90;;;;;;5064168;28;20051;-79
2021/12/01 07:03:33;;;;;;;0.85;0.85;;;8.80;99.90;;;;;;5066733;28;20076;-82
2021/12/01 07:05:58;;;;;;;0.60;0.60;;;8.80;99.90;;;;;;5058047;28;20528;-77
2021/12/01 07:08:24;;;;;;;1.00;1.00;;;8.70;99.90;;;;;;5061528;28;20123;-77
2021/12/01 07:10:50;;;;;;;1.67;0.75;;;8.70;99.90;;;;;;5058849;28;20072;-84
2021/12/01 07:13:15;;;;;;;0.88;0.88;;;9.70;99.90;;;;;;5062008;28;20045;-78
2021/12/01 07:15:41;;;;;;;1.15;1.00;;;8.80;99.90;;;;;;5062841;28;20083;-77
2021/12/01 07:18:08;;;;;;;1.75;1.65;;;8.70;99.90;;;;;;5060888;28;20037;-81
2021/12/01 07:20:34;;;;;;;2.22;1.92;;;8.70;99.90;;;;;;5065109;28;20044;-74
2021/12/01 07:23:00;;;;;;;2.35;1.67;;;8.70;99.90;;;;;;5070580;28;20130;-79
2021/12/01 07:25:26;;;;;;;2.88;1.42;;;8.70;99.90;;;;;;5065811;28;20072;-81
2021/12/01 07:27:52;;;;;;;2.67;1.42;;;8.70;99.90;;;;;;5065354;28;20505;-80
2021/12/01 07:30:17;;;;;;;1.42;1.33;;;8.80;99.90;;;;;;5063865;28;20043;-80
2021/12/01 07:32:43;;;;;;;1.27;1.27;;;8.80;99.90;;;;;;5062763;28;20467;-79
2021/12/01 07:35:09;;;;;;;2.65;2.00;;;8.80;99.90;;;;;;5062384;28;20045;-82
2021/12/01 07:37:35;;;;;;;2.85;1.88;;;8.80;99.90;;;;;;5048551;28;20040;-84
2021/12/01 07:40:01;;;;;;;3.83;2.53;;;8.80;99.90;;;;;;5060339;28;20045;-83
2021/12/01 07:42:27;;;;;;;4.05;1.90;;;8.80;99.90;;;;;;5064022;28;20044;-83
2021/12/01 07:44:52;;;;;;;3.50;2.22;;;8.80;99.90;;;;;;4712582;28;10000285;-81
2021/12/01 07:47:18;;;;;;;2.97;2.08;;;8.80;99.90;;;;;;5059898;28;20072;-81
2021/12/01 07:49:43;;;;;;;7.05;1.77;;;8.90;99.90;;;;;;5055848;28;20044;-83
2021/12/01 07:52:10;;;;;;;2.97;1.67;;;8.90;99.90;;;;;;5059200;28;20060;-84
2021/12/01 07:54:37;;;;;;;3.38;2.25;;;8.90;99.90;;;;;;5059332;28;20052;-83
2021/12/01 07:57:03;;;;;;;8.20;2.90;;;8.80;99.90;;;;;;5059864;28;20128;-79
2021/12/01 07:59:29;;;;;;;4.57;2.58;;;9.00;99.90;;;;;;5057300;28;20044;-81
2021/12/01 08:01:55;;;;;;;2.95;2.67;;;8.90;99.90;;;;;;5064324;28;20071;-82
2021/12/01 08:04:21;;;;;;;2.42;2.22;;;8.90;99.90;;;;;;5056707;28;20098;-86
2021/12/01 08:06:47;;;;;;;4.95;4.15;;;8.90;99.90;;;;;;5057228;28;20040;-80
2021/12/01 08:09:12;;;;;;;5.63;2.03;;;9.00;99.90;;;;;;5055248;28;20056;-78
2021/12/01 08:11:39;;;;;;;2.67;2.10;;;8.90;99.90;;;;;;5057138;28;20040;-87
2021/12/01 08:14:06;;;;;;;7.13;2.85;;;8.90;99.90;;;;;;5064051;28;20399;-80
2021/12/01 08:16:36;;;;;;;2.75;2.05;;;8.80;99.90;;;;;;5068001;28;20045;-82
2021/12/01 08:19:02;;;;;;;4.35;2.75;;;9.00;99.90;;;;;;5063532;28;20098;-75
2021/12/01 08:21:28;;;;;;;3.22;2.50;;;8.90;99.90;;;;;;5067939;28;20544;-79
2021/12/01 08:23:54;;;;;;;5.57;2.03;;;8.90;99.90;;;;;;5068129;28;20120;-83
2021/12/01 08:26:21;;;;;;;6.97;2.92;;;8.90;99.90;;;;;;5067556;28;20162;-83
2021/12/01 08:28:47;;;;;;;3.92;2.20;;;9.00;99.90;;;;;;5067907;28;20059;-78
2021/12/01 08:31:15;;;;;;;2.17;1.52;;;9.00;99.90;;;;;;5067567;28;20052;-83
2021/12/01 08:33:41;;;;;;;2.15;0.73;;;9.00;99.90;;;;;;5067528;28;20510;-81
2021/12/01 08:36:09;;;;;;;3.20;0.75;;;9.10;99.90;;;;;;5067430;28;20037;-84
2021/12/01 08:38:36;;;;;;;2.30;0.57;;;9.10;99.90;;;;;;5062669;28;20041;-77
2021/12/01 08:41:02;;;;;;;8.45;1.25;;;9.10;99.90;;;;;;5069247;28;20041;-76
2021/12/01 08:43:27;;;;;;;6.55;1.35;;;9.00;99.90;;;;;;5068058;28;20511;-77
2021/12/01 08:45:53;;;;;;;6.57;0.82;;;9.00;99.90;;;;;;5069549;28;20047;-84
2021/12/01 08:48:19;;;;;;;9.20;2.17;;;9.00;99.90;;;;;;5067182;28;20138;-84
2021/12/01 08:50:45;;;;;;;8.70;1.75;;;9.00;99.90;;;;;;5064910;28;20504;-83
2021/12/01 08:53:11;;;;;;;10.65;1.63;;;9.00;99.90;;;;;;5069115;28;20141;-82
2021/12/01 08:55:40;;;;;;;6.85;0.95;;;10.30;99.90;;;;;;5067861;28;20373;-89
2021/12/01 08:58:14;;;;;;;5.47;1.25;;;9.00;99.90;;;;;;5068798;28;20066;-87
2021/12/01 09:00:45;;;;;;;6.28;0.85;;;9.00;99.90;;;;;;5068151;28;20111;-83
2021/12/01 09:03:12;;;;;;;7.75;0.88;;;9.00;99.90;;;;;;5060853;28;20037;-81
2021/12/01 09:05:39;;;;;;;9.48;1.05;;;8.90;99.90;;;;;;5062631;28;20048;-81
2021/12/01 09:08:05;;;;;;;8.07;1.15;;;8.90;99.90;;;;;;5059474;28;20041;-85
2021/12/01 09:10:31;;;;;;;8.05;1.02;;;9.00;99.90;;;;;;5056854;28;20113;-84
2021/12/01 09:12:57;;;;;;;6.90;0.90;;;8.90;99.90;;;;;;5062617;28;20543;-85
2021/12/01 09:15:23;;;;;;;7.45;1.38;;;8.90;99.90;;;;;;5060507;28;20164;-87
2021/12/01 09:17:48;;;;;;;10.38;0.85;;;8.80;99.90;;;;;;5063999;28;20052;-85
2021/12/01 09:20:14;;;;;;;7.47;1.02;;;8.80;99.90;;;;;;5062509;28;20471;-86
2021/12/01 09:22:40;;;;;;;6.65;0.77;;;8.80;99.90;;;;;;5066837;28;20391;-86
2021/12/01 09:25:07;;;;;;;3.97;0.38;;;8.80;99.90;;;;;;5061405;28;20115;-85
2021/12/01 09:27:33;;;;;;;8.25;1.00;;;8.70;99.90;;;;;;5058216;28;20102;-85
2021/12/01 09:29:58;;;;;;;7.35;0.90;;;8.70;99.90;;;;;;5065137;28;20032;-85
2021/12/01 09:32:24;;;;;;;8.45;1.10;;;8.70;99.90;;;;;;5058976;28;20048;-87
2021/12/01 09:34:50;;;;;;;6.63;0.90;;;8.50;99.90;;;;;;5069513;28;20032;-82
2021/12/01 09:37:16;;;;;;;4.05;0.50;;;8.50;99.90;;;;;;5057435;28;20041;-85
2021/12/01 09:39:43;;;;;;;5.90;1.25;;;8.50;99.90;;;;;;5073397;28;20037;-87
2021/12/01 09:42:09;;;;;;;8.38;0.75;;;8.60;99.90;;;;;;5073595;28;20047;-86
2021/12/01 09:44:36;;;;;;;8.38;1.30;;;8.50;99.90;;;;;;5073544;28;20408;-87
2021/12/01 09:47:02;;;;;;;6.07;0.52;;;8.60;99.90;;;;;;5072928;28;20044;-83
2021/12/01 09:49:29;;;;;;;5.75;0.95;;;8.50;99.90;;;;;;5072703;28;20460;-82
2021/12/01 09:51:54;;;;;;;6.95;0.75;;;8.50;99.90;;;;;;5073036;28;20488;-87
2021/12/01 09:54:20;;;;;;;9.65;1.13;;;8.50;99.90;;;;;;5072249;28;20045;-88
2021/12/01 09:56:46;;;;;;;12.00;1.83;;;8.50;99.90;;;;;;5055298;28;20037;-85
2021/12/01 09:59:11;;;;;;;6.10;0.85;;;8.50;99.90;;;;;;5072298;28;20750;-84
2021/12/01 10:01:37;;;;;;;13.05;1.65;;;8.40;99.90;;;;;;5072206;28;20492;-84
2021/12/01 10:04:03;;;;;;;11.00;1.55;;;8.50;99.90;;;;;;5071914;28;20047;-84
2021/12/01 10:06:29;;;;;;;9.23;1.77;;;8.50;99.90;;;;;;5072207;28;20036;-86
2021/12/01 10:09:14;;;;;;;11.57;1.67;;;8.50;99.90;;;;;;5071835;28;20036;-76
2021/12/01 10:11:42;;;;;;;18.50;1.85;;;8.70;99.90;;;;;;5067744;28;20040;-81
2021/12/01 10:14:14;;;;;;;17.65;2.50;;;8.60;99.90;;;;;;5070491;28;20058;-82
2021/12/01 10:16:43;;;;;;;12.63;2.03;;;8.70;99.90;;;;;;5072722;28;20447;-80
2021/12/01 10:19:12;;;;;;;15.68;1.50;;;8.70;99.90;;;;;;5071842;28;20133;-85
2021/12/01 10:21:40;;;;;;;10.77;2.17;;;8.70;99.90;;;;;;5073249;28;20067;-81
2021/12/01 10:24:16;;;;;;;18.35;2.17;;;8.90;99.90;;;;;;5072426;28;20051;-84
2021/12/01 10:26:53;;;;;;;14.15;2.50;;;8.90;99.90;;;;;;5071997;28;20421;-81
2021/12/01 10:29:21;;;;;;;17.23;2.00;;;8.80;99.90;;;;;;5070482;28;20052;-85
2021/12/01 10:31:55;;;;;;;12.85;1.83;;;8.70;99.90;;;;;;5062063;28;20119;-86
2021/12/01 10:34:43;;;;;;;10.13;1.31;;;8.70;99.90;;;;;;4970384;28;10001198;-81
2021/12/01 10:37:29;;;;;;;15.27;2.22;;;8.80;99.90;;;;;;5069092;28;20321;-84
2021/12/01 10:40:10;;;;;;;12.23;2.83;;;8.80;99.90;;;;;;5064141;28;20488;-87
2021/12/01 10:42:53;;;;;;;12.52;1.83;;;8.70;99.90;;;;;;5070051;28;20041;-82
2021/12/01 10:45:22;;;;;;;14.27;0.95;;;8.90;99.90;;;;;;5069456;28;20334;-83
2021/12/01 10:47:48;;;;;;;13.63;1.20;;;10.30;99.90;;;;;;5076799;28;20040;-82
2021/12/01 10:50:17;;;;;;;6.35;1.85;;;8.70;99.90;;;;;;5069224;28;20559;-80
2021/12/01 10:52:47;;;;;;;14.18;1.75;;;8.60;99.90;;;;;;5085414;28;20440;-81
2021/12/01 10:55:19;;;;;;;6.85;1.30;;;8.60;99.90;;;;;;5068476;28;20447;-82
2021/12/01 10:57:59;;;;;;;7.28;1.00;;;8.70;99.90;;;;;;5069823;28;20090;-78
2021/12/01 11:00:39;;;;;;;8.43;1.20;;;8.60;99.90;;;;;;5067762;28;20048;-80
2021/12/01 11:03:12;;;;;;;6.10;0.50;;;8.60;99.90;;;;;;5068590;28;20044;-75
2021/12/01 11:05:40;;;;;;;12.00;1.40;;;8.60;99.90;;;;;;5069018;28;20508;-84
2021/12/01 11:08:29;;;;;;;13.27;1.25;;;8.50;99.90;;;;;;5063454;28;20439;-81
2021/12/01 11:11:08;;;;;;;17.88;2.03;;;8.60;99.90;;;;;;5058674;28;20044;-82
2021/12/01 11:13:36;;;;;;;8.05;1.67;;;8.70;99.90;;;;;;5065197;28;20062;-85
2021/12/01 11:16:06;;;;;;;12.75;1.63;;;8.70;99.90;;;;;;5068007;28;20093;-77
2021/12/01 11:18:35;;;;;;;9.32;1.40;;;8.60;99.90;;;;;;5062611;28;20040;-88
2021/12/01 11:21:19;;;;;;;8.02;1.70;;;8.70;99.90;;;;;;5064312;28;20044;-86
2021/12/01 11:24:10;;;;;;;14.40;2.00;;;8.70;99.90;;;;;;5068097;28;20048;-82
2021/12/01 11:26:40;;;;;;;19.75;2.17;;;8.60;99.90;;;;;;5062277;28;20887;-87
2021/12/01 11:29:09;;;;;;;19.15;2.38;;;8.70;99.90;;;;;;5067992;28;20595;-82
2021/12/01 11:31:41;;;;;;;15.77;2.00;;;8.60;99.90;;;;;;5066748;28;20521;-88
2021/12/01 11:34:10;;;;;;;15.25;2.65;;;8.70;99.90;;;;;;5055107;28;20503;-84
2021/12/01 11:36:42;;;;;;;15.30;2.10;;;8.80;99.90;;;;;;5060780;28;20511;-83
2021/12/01 11:39:11;;;;;;;17.40;3.00;;;8.80;99.90;;;;;;5055062;28;20120;-83
2021/12/01 11:41:42;;;;;;;15.93;3.15;;;8.90;99.90;;;;;;5059990;28;20040;-86
2021/12/01 11:44:08;;;;;;;16.58;2.08;;;8.80;99.90;;;;;;5061970;28;20560;-82
2021/12/01 11:46:34;;;;;;;16.83;2.05;;;8.80;99.90;;;;;;5068115;28;20037;-86
2021/12/01 11:49:08;;;;;;;17.75;2.60;;;8.70;99.90;;;;;;5068926;28;20040;-87
2021/12/01 11:52:06;;;;;;;20.30;2.75;;;8.70;99.90;;;;;;5067418;28;20097;-83
2021/12/01 11:54:32;;;;;;;17.48;2.05;;;8.60;99.90;;;;;;5065435;28;20119;-77
2021/12/01 11:56:59;;;;;;;15.35;2.38;;;8.70;99.90;;;;;;5068631;28;20476;-82
2021/12/01 11:59:28;;;;;;;11.82;2.00;;;8.60;99.90;;;;;;5067629;28;20198;-86
2021/12/01 12:02:07;;;;;;;16.63;2.35;;;8.50;99.90;;;;;;5068280;28;20036;-85
2021/12/01 12:04:45;;;;;;;17.92;3.20;;;8.40;99.90;;;;;;5065110;28;20063;-78
2021/12/01 12:07:11;;;;;;;12.10;1.83;;;8.30;99.90;;;;;;5068254;28;20040;-82
2021/12/01 12:09:37;;;;;;;19.67;2.85;;;8.40;99.90;;;;;;5068669;28;20664;-81
2021/12/01 12:12:19;;;;;;;14.25;2.75;;;8.40;99.90;;;;;;5066152;28;20047;-89
2021/12/01 12:14:44;;;;;;;13.98;2.20;;;8.30;99.90;;;;;;5049385;28;20484;-80
2021/12/01 12:17:19;;;;;;;11.45;2.05;;;8.40;99.90;;;;;;5057989;28;20045;-91
2021/12/01 12:20:02;;;;;;;17.50;2.65;;;8.40;99.90;;;;;;5054877;28;20115;-83
2021/12/01 12:22:52;;;;;;;15.40;1.75;;;8.40;99.90;;;;;;5057509;28;20048;-88
2021/12/01 12:25:43;;;;;;;11.32;2.20;;;9.30;99.90;;;;;;5049995;28;20049;-86
2021/12/01 12:28:20;;;;;;;13.18;1.70;;;8.40;99.90;;;;;;5057065;28;20052;-86
2021/12/01 12:30:46;;;;;;;19.63;4.60;;;8.30;99.90;;;;;;5060454;28;20056;-83
2021/12/01 12:33:31;;;;;;;15.10;1.85;;;8.30;99.90;;;;;;5054236;28;20045;-84
2021/12/01 12:36:01;;;;;;;10.30;1.48;;;8.30;99.90;;;;;;5059575;28;20052;-77
2021/12/01 12:38:27;;;;;;;16.23;2.75;;;8.20;99.90;;;;;;5053380;28;20041;-83
2021/12/01 12:41:02;;;;;;;12.57;1.98;;;8.20;99.90;;;;;;5061281;28;20043;-88
2021/12/01 12:43:29;;;;;;;8.05;1.20;;;8.10;99.90;;;;;;5057585;28;20064;-82
2021/12/01 12:46:03;;;;;;;14.35;1.60;;;8.00;99.90;;;;;;5063332;28;20060;-85
2021/12/01 12:48:35;;;;;;;11.50;1.15;;;6.80;99.90;;;;;;5058441;28;20060;-85
2021/12/01 12:51:12;;;;;;;7.88;0.93;;;7.80;99.90;;;;;;5056096;28;20048;-83
2021/12/01 12:54:00;;;;;;;6.68;1.58;;;7.80;99.90;;;;;;5057346;28;20056;-85
2021/12/01 12:56:32;;;;;;;16.27;1.30;;;7.80;99.90;;;;;;5055813;28;20049;-76
2021/12/01 12:59:28;;;;;;;14.55;2.30;;;7.90;99.90;;;;;;5064068;28;20132;-87
2021/12/01 13:02:10;;;;;;;9.57;1.35;;;7.90;99.90;;;;;;5061357;28;20053;-75
2021/12/01 13:05:05;;;;;;;6.53;1.00;;;7.90;99.90;;;;;;5068378;28;20094;-82